Time;durP1;ratioP1;P1;durP2;ratioP2;P2;SDS_P1;SDS_P2;PMS_P1;PMS_P2;Temp;Humidity;BMP_temperature;BMP_pressure;BME280_temperature;BME280_humidity;BME280_pressure;Samples;Min_cycle;Max_cycle;Signal;HPM_P1;HPM_P2
2023/08/13 00:00:16;;;;;;;29.98;13.07;;;;;;;;;;5053827;28;20048;-68
2023/08/13 00:02:42;;;;;;;21.33;13.07;;;;;;;;;;5053326;28;20437;-68
2023/08/13 00:05:08;;;;;;;29.00;12.40;;;;;;;;;;5054211;28;20041;-69
2023/08/13 00:07:34;;;;;;;22.23;11.73;;;;;;;;;;5053821;28;20057;-68
2023/08/13 00:10:00;;;;;;;27.30;12.63;;;;;;;;;;5054848;28;20045;-68
2023/08/13 00:12:26;;;;;;;23.40;12.90;;;;;;;;;;5055206;28;20053;-69
2023/08/13 00:14:51;;;;;;;29.73;12.18;;;;;;;;;;5054063;28;20057;-68
2023/08/13 00:17:17;;;;;;;23.42;11.90;;;;;;;;;;5053759;28;20037;-69
2023/08/13 00:19:42;;;;;;;19.45;11.77;;;;;;;;;;5054415;28;20367;-68
2023/08/13 00:22:08;;;;;;;20.98;12.40;;;;;;;;;;5054259;28;20041;-69
2023/08/13 00:24:35;;;;;;;23.73;11.73;;;;;;;;;;5054457;28;20379;-68
2023/08/13 00:27:00;;;;;;;21.25;12.07;;;;;;;;;;5053968;28;20044;-69
2023/08/13 00:29:26;;;;;;;21.00;11.93;;;;;;;;;;5053429;28;20041;-68
2023/08/13 00:31:54;;;;;;;24.38;12.23;;;;;;;;;;5054746;28;20052;-70
2023/08/13 00:34:21;;;;;;;20.23;11.70;;;;;;;;;;5037232;28;20041;-69
2023/08/13 00:36:46;;;;;;;23.88;12.35;;;;;;;;;;5036788;28;20099;-69
2023/08/13 00:39:12;;;;;;;26.38;12.48;;;;;;;;;;5036435;28;20463;-68
2023/08/13 00:41:38;;;;;;;30.52;13.18;;;;;;;;;;5054151;28;20119;-69
2023/08/13 00:44:03;;;;;;;22.92;13.00;;;;;;;;;;5053856;28;20111;-68
2023/08/13 00:46:30;;;;;;;20.50;12.52;;;;;;;;;;5052848;28;20083;-69
2023/08/13 00:48:58;;;;;;;30.73;13.20;;;;;;;;;;5053607;28;20428;-68
2023/08/13 00:51:23;;;;;;;22.92;13.88;;;;;;;;;;5052654;28;20159;-68
2023/08/13 00:53:49;;;;;;;29.52;13.05;;;;;;;;;;5036161;28;20131;-69
2023/08/13 00:56:15;;;;;;;22.67;12.68;;;;;;;;;;5052513;28;20033;-69
2023/08/13 00:58:42;;;;;;;27.77;13.75;;;;;;;;;;5036226;28;20048;-69
2023/08/13 01:01:07;;;;;;;38.22;14.10;;;;;;;;;;5052661;28;20178;-68
2023/08/13 01:03:34;;;;;;;24.75;13.63;;;;;;;;;;5054310;28;20131;-68
2023/08/13 01:06:10;;;;;;;27.92;13.48;;;;;;;;;;5054444;28;20055;-69
2023/08/13 01:08:43;;;;;;;24.48;13.20;;;;;;;;;;5055158;28;20053;-68
2023/08/13 01:11:17;;;;;;;26.05;12.90;;;;;;;;;;5052730;28;20040;-69
2023/08/13 01:13:45;;;;;;;24.65;14.10;;;;;;;;;;5019723;28;20029;-69
2023/08/13 01:16:11;;;;;;;26.75;14.30;;;;;;;;;;5054124;28;20411;-68
2023/08/13 01:18:39;;;;;;;26.08;12.70;;;;;;;;;;5053689;28;20040;-69
2023/08/13 01:21:05;;;;;;;23.73;12.48;;;;;;;;;;5053137;28;20037;-68
2023/08/13 01:23:31;;;;;;;21.17;12.65;;;;;;;;;;5035615;28;20041;-68
2023/08/13 01:25:57;;;;;;;23.10;12.00;;;;;;;;;;5051974;28;20117;-68
2023/08/13 01:28:32;;;;;;;26.27;13.68;;;;;;;;;;5052973;28;20041;-69
2023/08/13 01:31:01;;;;;;;26.48;13.55;;;;;;;;;;5035684;28;20123;-68
2023/08/13 01:33:31;;;;;;;24.15;12.70;;;;;;;;;;5053138;28;20041;-68
2023/08/13 01:35:58;;;;;;;26.75;13.68;;;;;;;;;;5035593;28;20036;-68
2023/08/13 01:38:28;;;;;;;22.23;13.82;;;;;;;;;;5052502;28;20033;-69
2023/08/13 01:40:56;;;;;;;24.55;13.02;;;;;;;;;;5053161;28;20041;-69
2023/08/13 01:43:22;;;;;;;21.40;13.13;;;;;;;;;;5052076;28;20056;-69
2023/08/13 01:45:50;;;;;;;20.10;13.50;;;;;;;;;;5051822;28;20052;-69
2023/08/13 01:48:15;;;;;;;25.58;14.05;;;;;;;;;;5034939;28;20397;-69
2023/08/13 01:50:41;;;;;;;28.77;15.20;;;;;;;;;;5035050;28;20467;-68
2023/08/13 01:53:07;;;;;;;28.38;13.98;;;;;;;;;;5052588;28;20029;-69
2023/08/13 01:55:32;;;;;;;25.10;14.77;;;;;;;;;;5035279;28;20037;-69
2023/08/13 01:57:58;;;;;;;31.48;15.20;;;;;;;;;;5051341;28;20191;-68
2023/08/13 02:00:23;;;;;;;22.58;14.27;;;;;;;;;;5051743;28;20558;-68
2023/08/13 02:02:49;;;;;;;27.38;14.18;;;;;;;;;;5052407;28;20055;-69
2023/08/13 02:05:16;;;;;;;25.23;14.38;;;;;;;;;;5051539;28;20126;-69
2023/08/13 02:07:41;;;;;;;27.45;14.43;;;;;;;;;;5051297;28;20079;-69
2023/08/13 02:10:07;;;;;;;23.63;13.27;;;;;;;;;;5052267;28;20048;-69
2023/08/13 02:12:33;;;;;;;23.65;13.23;;;;;;;;;;5051979;28;20505;-68
2023/08/13 02:15:00;;;;;;;21.27;13.35;;;;;;;;;;5052659;28;20471;-68
2023/08/13 02:17:26;;;;;;;21.20;13.50;;;;;;;;;;5052923;28;20029;-69
2023/08/13 02:19:54;;;;;;;19.13;13.50;;;;;;;;;;5052769;28;20079;-69
2023/08/13 02:22:19;;;;;;;17.02;13.07;;;;;;;;;;5051507;28;20072;-68
2023/08/13 02:24:45;;;;;;;23.25;13.30;;;;;;;;;;5051515;28;20491;-68
2023/08/13 02:27:11;;;;;;;21.10;13.57;;;;;;;;;;5052453;28;20091;-69
2023/08/13 02:29:36;;;;;;;24.25;12.85;;;;;;;;;;5052540;28;20045;-69
2023/08/13 02:32:02;;;;;;;20.52;12.88;;;;;;;;;;5052688;28;20029;-68
2023/08/13 02:34:31;;;;;;;23.90;12.80;;;;;;;;;;5051744;28;20051;-69
2023/08/13 02:36:56;;;;;;;19.35;12.38;;;;;;;;;;5054410;28;20028;-68
2023/08/13 02:39:23;;;;;;;21.35;11.95;;;;;;;;;;5056240;28;20072;-69
2023/08/13 02:41:48;;;;;;;20.15;12.20;;;;;;;;;;5055190;28;20075;-68
2023/08/13 02:44:15;;;;;;;18.73;11.73;;;;;;;;;;5038342;28;20590;-68
2023/08/13 02:46:40;;;;;;;24.75;12.23;;;;;;;;;;5038609;28;20116;-69
2023/08/13 02:49:06;;;;;;;23.85;12.07;;;;;;;;;;5055838;28;20083;-68
2023/08/13 02:51:32;;;;;;;21.05;12.50;;;;;;;;;;5055891;28;20447;-70
2023/08/13 02:53:57;;;;;;;28.67;11.88;;;;;;;;;;5055226;28;20041;-69
2023/08/13 02:56:23;;;;;;;18.92;12.10;;;;;;;;;;5054819;28;20044;-69
2023/08/13 02:58:49;;;;;;;22.33;11.80;;;;;;;;;;5038459;28;20375;-68
2023/08/13 03:01:14;;;;;;;22.52;12.10;;;;;;;;;;5038272;28;20361;-69
2023/08/13 03:03:40;;;;;;;25.55;12.18;;;;;;;;;;5054891;28;20041;-69
2023/08/13 03:06:06;;;;;;;22.20;11.88;;;;;;;;;;5038063;28;20036;-69
2023/08/13 03:08:32;;;;;;;19.63;11.73;;;;;;;;;;5054528;28;20067;-68
2023/08/13 03:10:58;;;;;;;22.08;11.43;;;;;;;;;;5054196;28;20037;-68
2023/08/13 03:13:25;;;;;;;22.67;12.65;;;;;;;;;;5038067;28;20106;-69
2023/08/13 03:15:50;;;;;;;21.10;11.45;;;;;;;;;;5054649;28;20484;-69
2023/08/13 03:18:16;;;;;;;19.60;11.73;;;;;;;;;;5054585;28;20128;-69
2023/08/13 03:20:48;;;;;;;25.20;12.63;;;;;;;;;;5022696;28;20359;-68
2023/08/13 03:23:14;;;;;;;18.63;12.35;;;;;;;;;;5055251;28;20040;-69
2023/08/13 03:25:42;;;;;;;24.42;11.43;;;;;;;;;;5038859;28;20094;-69
2023/08/13 03:28:08;;;;;;;30.13;12.60;;;;;;;;;;5056451;28;20045;-69
2023/08/13 03:30:34;;;;;;;23.85;12.38;;;;;;;;;;5022814;28;20033;-69
2023/08/13 03:33:00;;;;;;;23.45;12.52;;;;;;;;;;5055183;28;20136;-68
2023/08/13 03:35:27;;;;;;;28.15;12.77;;;;;;;;;;5037686;28;20086;-69
2023/08/13 03:37:54;;;;;;;22.05;11.82;;;;;;;;;;5054993;28;20044;-68
2023/08/13 03:40:21;;;;;;;27.42;12.52;;;;;;;;;;5037787;28;20051;-69
2023/08/13 03:42:47;;;;;;;32.05;12.25;;;;;;;;;;5054897;28;20036;-69
2023/08/13 03:45:13;;;;;;;21.08;11.77;;;;;;;;;;5054915;28;20044;-69
2023/08/13 03:47:39;;;;;;;24.10;12.30;;;;;;;;;;5053827;28;20037;-69
2023/08/13 03:50:05;;;;;;;22.98;11.82;;;;;;;;;;5053629;28;20179;-70
2023/08/13 03:52:32;;;;;;;23.25;11.05;;;;;;;;;;5054114;28;20116;-69
2023/08/13 03:54:58;;;;;;;23.52;11.45;;;;;;;;;;5054775;28;20420;-69
2023/08/13 03:57:23;;;;;;;17.30;11.23;;;;;;;;;;5053666;28;20549;-69
2023/08/13 03:59:50;;;;;;;21.55;9.88;;;;;;;;;;5053898;28;20044;-69
2023/08/13 04:02:16;;;;;;;23.10;10.52;;;;;;;;;;5053602;28;20037;-69
2023/08/13 04:04:44;;;;;;;20.52;10.23;;;;;;;;;;5053699;28;20033;-68
2023/08/13 04:07:11;;;;;;;26.45;10.88;;;;;;;;;;5036809;28;20148;-69
2023/08/13 04:09:37;;;;;;;19.20;10.10;;;;;;;;;;5054322;28;20051;-69
2023/08/13 04:12:04;;;;;;;15.65;9.65;;;;;;;;;;5037277;28;20063;-69
2023/08/13 04:14:30;;;;;;;20.65;10.32;;;;;;;;;;5053730;28;20467;-69
2023/08/13 04:16:55;;;;;;;20.83;9.10;;;;;;;;;;5053287;28;20033;-69
2023/08/13 04:19:21;;;;;;;25.70;10.30;;;;;;;;;;5020554;28;20039;-69
2023/08/13 04:21:47;;;;;;;19.30;9.05;;;;;;;;;;5054212;28;20119;-69
2023/08/13 04:24:13;;;;;;;18.48;8.98;;;;;;;;;;5054486;28;20040;-69
2023/08/13 04:26:38;;;;;;;12.75;8.90;;;;;;;;;;5053012;28;20627;-69
2023/08/13 04:29:06;;;;;;;19.73;8.55;;;;;;;;;;5052938;28;20388;-69
2023/08/13 04:31:32;;;;;;;23.05;7.88;;;;;;;;;;5053421;28;20040;-69
2023/08/13 04:33:57;;;;;;;25.60;8.43;;;;;;;;;;5036400;28;20041;-69
2023/08/13 04:36:24;;;;;;;25.13;7.38;;;;;;;;;;5052915;28;20044;-69
2023/08/13 04:38:50;;;;;;;19.08;8.65;;;;;;;;;;5036311;28;20041;-69
2023/08/13 04:41:16;;;;;;;13.75;7.95;;;;;;;;;;5053821;28;20544;-69
2023/08/13 04:43:45;;;;;;;12.60;7.40;;;;;;;;;;5052862;28;20110;-69
2023/08/13 04:46:10;;;;;;;18.98;7.35;;;;;;;;;;5053673;28;20044;-69
2023/08/13 04:48:42;;;;;;;14.38;8.25;;;;;;;;;;5035908;28;20040;-69
2023/08/13 04:51:08;;;;;;;14.50;7.30;;;;;;;;;;5052826;28;20037;-69
2023/08/13 04:53:36;;;;;;;11.18;7.20;;;;;;;;;;5053805;28;20066;-69
2023/08/13 04:56:05;;;;;;;10.32;7.10;;;;;;;;;;5037234;28;20078;-68
2023/08/13 04:58:30;;;;;;;14.32;7.72;;;;;;;;;;5036754;28;20029;-69
2023/08/13 05:00:56;;;;;;;12.15;6.68;;;;;;;;;;5052510;28;20044;-70
2023/08/13 05:03:23;;;;;;;13.27;7.15;;;;;;;;;;5052564;28;20041;-69
2023/08/13 05:05:49;;;;;;;13.77;6.70;;;;;;;;;;5052786;28;20116;-69
2023/08/13 05:08:15;;;;;;;13.77;7.07;;;;;;;;;;5035616;28;20088;-69
2023/08/13 05:10:42;;;;;;;18.25;6.82;;;;;;;;;;5052705;28;20035;-69
2023/08/13 05:13:08;;;;;;;10.45;6.10;;;;;;;;;;5052467;28;20175;-69
2023/08/13 05:15:35;;;;;;;10.05;6.05;;;;;;;;;;5052565;28;20226;-69
2023/08/13 05:18:02;;;;;;;16.98;7.05;;;;;;;;;;5052766;28;20040;-69
2023/08/13 05:20:28;;;;;;;12.48;6.63;;;;;;;;;;5052998;28;20040;-69
2023/08/13 05:22:54;;;;;;;16.77;7.30;;;;;;;;;;5052528;28;20040;-69
2023/08/13 05:25:20;;;;;;;15.82;5.90;;;;;;;;;;5053622;28;20033;-69
2023/08/13 05:27:47;;;;;;;11.55;6.35;;;;;;;;;;5052814;28;20383;-69
2023/08/13 05:30:14;;;;;;;14.13;5.88;;;;;;;;;;5053013;28;20049;-68
2023/08/13 05:32:39;;;;;;;15.13;6.03;;;;;;;;;;5053726;28;20503;-69
2023/08/13 05:35:06;;;;;;;8.95;5.88;;;;;;;;;;5052776;28;20044;-69
2023/08/13 05:37:32;;;;;;;11.43;5.78;;;;;;;;;;5035705;28;20049;-69
2023/08/13 05:39:58;;;;;;;6.38;4.95;;;;;;;;;;5052388;28;20621;-69
2023/08/13 05:42:23;;;;;;;9.35;5.05;;;;;;;;;;5053139;28;20037;-69
2023/08/13 05:44:50;;;;;;;7.80;4.72;;;;;;;;;;5051689;28;20087;-69
2023/08/13 05:47:16;;;;;;;9.55;4.90;;;;;;;;;;5051822;28;20045;-69
2023/08/13 05:49:42;;;;;;;7.85;4.88;;;;;;;;;;5052684;28;20052;-69
2023/08/13 05:52:07;;;;;;;13.15;5.50;;;;;;;;;;5018995;28;20040;-69
2023/08/13 05:54:33;;;;;;;13.25;5.55;;;;;;;;;;5052017;28;20098;-69
2023/08/13 05:56:58;;;;;;;16.42;5.47;;;;;;;;;;5051699;28;20098;-69
2023/08/13 05:59:24;;;;;;;13.30;5.32;;;;;;;;;;5034943;28;20041;-69
2023/08/13 06:01:49;;;;;;;13.18;5.57;;;;;;;;;;5051314;28;20037;-69
2023/08/13 06:04:15;;;;;;;20.35;5.30;;;;;;;;;;5052318;28;20048;-69
2023/08/13 06:06:41;;;;;;;17.83;5.03;;;;;;;;;;5051260;28;20075;-69
2023/08/13 06:09:07;;;;;;;11.65;4.60;;;;;;;;;;5052548;28;20040;-69
2023/08/13 06:11:32;;;;;;;11.20;4.72;;;;;;;;;;5050768;28;20040;-69
2023/08/13 06:13:58;;;;;;;11.95;4.13;;;;;;;;;;5052499;28;20029;-70
2023/08/13 06:16:23;;;;;;;16.00;4.22;;;;;;;;;;5051467;28;20422;-69
2023/08/13 06:18:49;;;;;;;16.85;4.43;;;;;;;;;;5053058;28;20486;-69
2023/08/13 06:21:15;;;;;;;8.18;4.30;;;;;;;;;;5019032;28;20047;-69
2023/08/13 06:23:40;;;;;;;7.85;3.40;;;;;;;;;;5053011;28;20441;-69
2023/08/13 06:26:09;;;;;;;9.63;3.60;;;;;;;;;;5052332;28;20033;-69
2023/08/13 06:28:35;;;;;;;5.38;2.75;;;;;;;;;;5051684;28;20037;-72
2023/08/13 06:31:01;;;;;;;8.30;2.50;;;;;;;;;;5052183;28;20433;-69
2023/08/13 06:33:27;;;;;;;5.30;2.45;;;;;;;;;;5052288;28;20120;-70
2023/08/13 06:35:53;;;;;;;5.68;2.50;;;;;;;;;;5052027;28;20068;-69
2023/08/13 06:38:19;;;;;;;3.75;2.45;;;;;;;;;;5052164;28;20454;-69
2023/08/13 06:40:45;;;;;;;6.50;2.47;;;;;;;;;;5051137;28;20064;-69
2023/08/13 06:43:11;;;;;;;10.50;2.65;;;;;;;;;;5052168;28;20123;-69
2023/08/13 06:45:37;;;;;;;9.70;2.08;;;;;;;;;;5050809;28;20055;-69
2023/08/13 06:48:04;;;;;;;3.80;2.17;;;;;;;;;;5034870;28;20422;-70
2023/08/13 06:50:30;;;;;;;2.47;2.08;;;;;;;;;;5034307;28;20139;-69
2023/08/13 06:52:56;;;;;;;5.50;2.15;;;;;;;;;;5050848;28;20364;-69
2023/08/13 06:55:22;;;;;;;3.72;2.20;;;;;;;;;;5051737;28;20067;-69
2023/08/13 06:57:47;;;;;;;5.88;2.60;;;;;;;;;;5050816;28;20036;-69
2023/08/13 07:00:14;;;;;;;6.32;2.10;;;;;;;;;;5051834;28;20123;-69
2023/08/13 07:02:40;;;;;;;8.77;2.10;;;;;;;;;;5050956;28;20037;-69
2023/08/13 07:05:07;;;;;;;4.72;2.30;;;;;;;;;;5051526;28;20542;-69
2023/08/13 07:07:33;;;;;;;8.55;2.58;;;;;;;;;;5051564;28;20053;-69
2023/08/13 07:09:59;;;;;;;6.18;2.17;;;;;;;;;;5034104;28;20048;-69
2023/08/13 07:12:25;;;;;;;6.75;2.30;;;;;;;;;;5051690;28;20029;-69
2023/08/13 07:14:51;;;;;;;6.15;2.28;;;;;;;;;;5050524;28;20049;-69
2023/08/13 07:17:16;;;;;;;3.80;1.98;;;;;;;;;;5033874;28;20035;-69
2023/08/13 07:19:42;;;;;;;6.72;2.42;;;;;;;;;;5050796;28;20390;-69
2023/08/13 07:22:07;;;;;;;5.95;2.40;;;;;;;;;;5052097;28;20025;-69
2023/08/13 07:24:34;;;;;;;7.97;2.30;;;;;;;;;;5055342;28;20032;-69
2023/08/13 07:26:59;;;;;;;6.72;2.38;;;;;;;;;;5055228;28;20049;-69
2023/08/13 07:29:25;;;;;;;7.55;2.60;;;;;;;;;;5055348;28;20380;-69
2023/08/13 07:31:52;;;;;;;4.13;2.15;;;;;;;;;;5054151;28;20036;-69
2023/08/13 07:34:17;;;;;;;4.55;2.72;;;;;;;;;;5055148;28;20037;-69
2023/08/13 07:36:43;;;;;;;7.07;2.45;;;;;;;;;;5037704;28;20033;-69
2023/08/13 07:39:10;;;;;;;4.72;2.33;;;;;;;;;;5054220;28;20518;-69
2023/08/13 07:41:36;;;;;;;6.88;2.13;;;;;;;;;;5037506;28;20316;-68
2023/08/13 07:44:01;;;;;;;6.13;2.22;;;;;;;;;;5037622;28;20452;-69
2023/08/13 07:46:27;;;;;;;7.45;2.30;;;;;;;;;;5054949;28;20033;-68
2023/08/13 07:48:52;;;;;;;8.82;2.67;;;;;;;;;;5055608;28;20111;-69
2023/08/13 07:51:18;;;;;;;4.30;2.05;;;;;;;;;;5055030;28;20045;-68
2023/08/13 07:53:44;;;;;;;10.35;2.60;;;;;;;;;;5037629;28;20052;-69
2023/08/13 07:56:09;;;;;;;7.22;2.60;;;;;;;;;;5036898;28;20037;-69
2023/08/13 07:58:35;;;;;;;7.43;2.60;;;;;;;;;;5037027;28;20135;-69
2023/08/13 08:01:00;;;;;;;4.93;2.90;;;;;;;;;;5053684;28;20037;-70
2023/08/13 08:03:26;;;;;;;3.85;2.85;;;;;;;;;;5054565;28;20075;-69
2023/08/13 08:05:52;;;;;;;5.63;3.40;;;;;;;;;;5053636;28;20041;-69
2023/08/13 08:08:19;;;;;;;7.90;4.20;;;;;;;;;;5036504;28;20402;-68
2023/08/13 08:10:44;;;;;;;6.53;3.15;;;;;;;;;;5054878;28;20040;-69
2023/08/13 08:13:10;;;;;;;5.80;3.10;;;;;;;;;;5053600;28;20037;-69
2023/08/13 08:15:36;;;;;;;9.68;3.35;;;;;;;;;;5053952;28;20068;-69
2023/08/13 08:18:02;;;;;;;8.20;3.30;;;;;;;;;;5056144;28;20340;-69
2023/08/13 08:20:28;;;;;;;7.05;3.33;;;;;;;;;;5054756;28;20379;-69
2023/08/13 08:22:53;;;;;;;8.32;2.58;;;;;;;;;;5054656;28;20039;-68
2023/08/13 08:25:19;;;;;;;7.13;3.05;;;;;;;;;;5053782;28;20033;-69
2023/08/13 08:27:45;;;;;;;6.78;3.30;;;;;;;;;;5055318;28;20052;-69
2023/08/13 08:30:11;;;;;;;11.57;3.03;;;;;;;;;;5053721;28;20045;-69
2023/08/13 08:32:36;;;;;;;7.15;2.90;;;;;;;;;;5054346;28;20383;-69
2023/08/13 08:35:03;;;;;;;4.30;2.63;;;;;;;;;;5051423;28;20045;-69
2023/08/13 08:37:31;;;;;;;8.52;2.58;;;;;;;;;;5035743;28;20529;-69
2023/08/13 08:39:58;;;;;;;5.05;2.53;;;;;;;;;;5035220;28;20041;-69
2023/08/13 08:42:25;;;;;;;5.90;2.35;;;;;;;;;;5018859;28;20041;-68
2023/08/13 08:44:50;;;;;;;5.57;2.15;;;;;;;;;;5035192;28;20037;-68
2023/08/13 08:47:16;;;;;;;9.27;2.90;;;;;;;;;;5035482;28;20052;-68
2023/08/13 08:49:44;;;;;;;5.38;2.70;;;;;;;;;;5035205;28;20064;-68
2023/08/13 08:52:10;;;;;;;2.63;2.13;;;;;;;;;;5034937;28;20071;-68
2023/08/13 08:54:39;;;;;;;6.75;2.50;;;;;;;;;;5035102;28;20041;-68
2023/08/13 08:57:05;;;;;;;4.13;2.42;;;;;;;;;;5034883;28;20033;-68
2023/08/13 08:59:30;;;;;;;5.78;2.00;;;;;;;;;;5018364;28;20423;-68
2023/08/13 09:01:56;;;;;;;5.40;2.17;;;;;;;;;;5018390;28;20143;-69
2023/08/13 09:04:22;;;;;;;7.40;2.10;;;;;;;;;;5034536;28;20140;-68
2023/08/13 09:06:54;;;;;;;2.95;1.98;;;;;;;;;;5019073;28;20053;-68
2023/08/13 09:09:20;;;;;;;4.47;2.30;;;;;;;;;;5052337;28;20032;-69
2023/08/13 09:11:46;;;;;;;4.45;2.42;;;;;;;;;;5053315;28;20044;-69
2023/08/13 09:14:12;;;;;;;4.18;2.50;;;;;;;;;;5051791;28;20045;-69
2023/08/13 09:16:43;;;;;;;3.88;2.33;;;;;;;;;;5052038;28;20036;-69
2023/08/13 09:19:08;;;;;;;6.20;2.45;;;;;;;;;;5053159;28;20044;-69
2023/08/13 09:21:34;;;;;;;3.85;2.40;;;;;;;;;;5052742;28;20113;-69
2023/08/13 09:24:00;;;;;;;4.45;2.50;;;;;;;;;;5052328;28;20068;-69
2023/08/13 09:26:27;;;;;;;3.45;2.70;;;;;;;;;;5052802;28;20451;-69
2023/08/13 09:28:52;;;;;;;3.78;2.60;;;;;;;;;;5051890;28;20059;-69
2023/08/13 09:31:18;;;;;;;5.32;3.30;;;;;;;;;;5053105;28;20460;-69
2023/08/13 09:33:46;;;;;;;4.35;3.95;;;;;;;;;;5052981;28;20056;-69
2023/08/13 09:36:12;;;;;;;5.60;3.40;;;;;;;;;;5053452;28;20051;-69
2023/08/13 09:38:37;;;;;;;8.02;3.20;;;;;;;;;;5053048;28;20135;-69
2023/08/13 09:41:04;;;;;;;6.28;3.00;;;;;;;;;;5037486;28;20037;-69
2023/08/13 09:43:30;;;;;;;5.30;3.08;;;;;;;;;;5055513;28;20398;-68
2023/08/13 09:45:56;;;;;;;5.35;2.67;;;;;;;;;;5037453;28;20560;-69
2023/08/13 09:48:25;;;;;;;6.32;2.60;;;;;;;;;;5053461;28;20032;-68
2023/08/13 09:50:52;;;;;;;6.20;2.58;;;;;;;;;;5052797;28;20068;-68
2023/08/13 09:53:20;;;;;;;4.40;2.78;;;;;;;;;;5052887;28;20447;-69
2023/08/13 09:55:50;;;;;;;5.20;2.78;;;;;;;;;;5052181;28;20506;-69
2023/08/13 09:58:17;;;;;;;8.63;2.70;;;;;;;;;;5019162;28;20128;-69
2023/08/13 10:00:43;;;;;;;4.93;2.90;;;;;;;;;;5051617;28;20454;-68
2023/08/13 10:03:09;;;;;;;7.18;2.60;;;;;;;;;;5052491;28;20051;-69
2023/08/13 10:05:35;;;;;;;6.45;2.38;;;;;;;;;;5051297;28;20028;-68
2023/08/13 10:08:02;;;;;;;5.38;2.58;;;;;;;;;;5052381;28;20391;-69
2023/08/13 10:10:29;;;;;;;4.00;2.65;;;;;;;;;;5051123;28;20052;-68
2023/08/13 10:12:54;;;;;;;5.15;2.63;;;;;;;;;;5052411;28;20041;-68
2023/08/13 10:15:20;;;;;;;4.35;2.50;;;;;;;;;;5018319;28;20043;-68
2023/08/13 10:17:46;;;;;;;4.80;2.75;;;;;;;;;;5034438;28;20037;-69
2023/08/13 10:20:13;;;;;;;3.10;2.45;;;;;;;;;;5030725;28;20039;-68
2023/08/13 10:22:39;;;;;;;5.00;2.67;;;;;;;;;;5031120;28;20060;-68
2023/08/13 10:25:07;;;;;;;5.57;2.72;;;;;;;;;;5032467;28;20045;-69
2023/08/13 10:27:37;;;;;;;4.35;2.35;;;;;;;;;;5031398;28;20091;-68
2023/08/13 10:30:12;;;;;;;7.05;3.97;;;;;;;;;;5031196;28;20052;-68
2023/08/13 10:32:46;;;;;;;6.93;3.10;;;;;;;;;;5032603;28;20049;-68
2023/08/13 10:35:23;;;;;;;7.88;3.58;;;;;;;;;;5031507;28;20515;-69
2023/08/13 10:37:50;;;;;;;8.05;3.15;;;;;;;;;;5031941;28;20095;-68
2023/08/13 10:40:16;;;;;;;8.65;3.17;;;;;;;;;;5031376;28;20052;-69
2023/08/13 10:42:45;;;;;;;3.70;2.80;;;;;;;;;;5032041;28;20041;-69
2023/08/13 10:45:13;;;;;;;10.13;2.95;;;;;;;;;;5031944;28;20057;-68
2023/08/13 10:47:46;;;;;;;6.75;3.17;;;;;;;;;;5031271;28;20040;-69
2023/08/13 10:50:15;;;;;;;6.68;2.95;;;;;;;;;;5014722;28;20047;-69
2023/08/13 10:52:41;;;;;;;7.60;2.80;;;;;;;;;;5031269;28;20132;-68
2023/08/13 10:55:09;;;;;;;4.78;2.78;;;;;;;;;;5032215;28;20137;-69
2023/08/13 10:57:35;;;;;;;4.65;3.00;;;;;;;;;;5032471;28;20112;-68
2023/08/13 11:00:01;;;;;;;4.07;3.08;;;;;;;;;;5035225;28;20065;-68
2023/08/13 11:02:30;;;;;;;5.40;2.92;;;;;;;;;;5034112;28;20045;-69
2023/08/13 11:04:56;;;;;;;4.30;3.08;;;;;;;;;;5034287;28;20148;-69
2023/08/13 11:07:23;;;;;;;7.97;3.85;;;;;;;;;;5034210;28;20057;-69
2023/08/13 11:09:49;;;;;;;5.20;3.15;;;;;;;;;;5002880;28;20072;-69
2023/08/13 11:12:15;;;;;;;4.38;3.10;;;;;;;;;;5034609;28;20048;-69
2023/08/13 11:14:42;;;;;;;4.05;2.90;;;;;;;;;;5017013;28;20037;-69
2023/08/13 11:17:07;;;;;;;4.40;2.70;;;;;;;;;;5017471;28;20045;-69
2023/08/13 11:19:34;;;;;;;5.38;2.70;;;;;;;;;;5017476;28;20503;-69
2023/08/13 11:22:00;;;;;;;5.47;2.63;;;;;;;;;;5000938;28;20053;-68
2023/08/13 11:24:26;;;;;;;8.35;2.60;;;;;;;;;;5017847;28;20076;-69
2023/08/13 11:26:52;;;;;;;5.55;2.22;;;;;;;;;;5037196;28;20029;-69
2023/08/13 11:29:19;;;;;;;17.13;2.80;;;;;;;;;;5020832;28;20146;-69
2023/08/13 11:31:45;;;;;;;3.85;2.25;;;;;;;;;;5019177;28;20041;-68
2023/08/13 11:34:11;;;;;;;6.47;2.58;;;;;;;;;;5035655;28;20061;-69
2023/08/13 11:36:36;;;;;;;7.93;2.63;;;;;;;;;;5035560;28;20030;-69
2023/08/13 11:39:03;;;;;;;9.07;3.60;;;;;;;;;;5018048;28;20041;-69
2023/08/13 11:41:29;;;;;;;6.93;2.63;;;;;;;;;;5018140;28;20116;-69
2023/08/13 11:43:55;;;;;;;6.22;2.92;;;;;;;;;;5034501;28;20124;-69
2023/08/13 11:46:21;;;;;;;9.80;3.20;;;;;;;;;;5034989;28;20409;-69
2023/08/13 11:48:53;;;;;;;7.90;2.72;;;;;;;;;;5034057;28;20041;-69
2023/08/13 11:51:22;;;;;;;9.45;3.70;;;;;;;;;;5034322;28;20045;-69
2023/08/13 11:53:49;;;;;;;8.23;3.30;;;;;;;;;;5034759;28;20044;-69
2023/08/13 11:56:16;;;;;;;10.73;4.38;;;;;;;;;;5034071;28;20755;-69
2023/08/13 11:58:41;;;;;;;7.13;4.00;;;;;;;;;;5033977;28;20029;-69
2023/08/13 12:01:09;;;;;;;7.53;3.78;;;;;;;;;;5034780;28;20033;-69
2023/08/13 12:03:35;;;;;;;5.72;4.15;;;;;;;;;;5034878;28;20065;-68
2023/08/13 12:06:01;;;;;;;8.52;4.93;;;;;;;;;;5034899;28;20375;-68
2023/08/13 12:08:28;;;;;;;7.57;4.53;;;;;;;;;;5034024;28;20148;-69
2023/08/13 12:10:54;;;;;;;7.65;4.63;;;;;;;;;;5034140;28;20045;-68
2023/08/13 12:13:19;;;;;;;10.45;5.22;;;;;;;;;;5017064;28;20037;-69
2023/08/13 12:15:45;;;;;;;12.95;5.85;;;;;;;;;;5034423;28;20500;-68
2023/08/13 12:18:10;;;;;;;9.95;6.03;;;;;;;;;;5033701;28;20051;-68
2023/08/13 12:20:36;;;;;;;6.30;5.22;;;;;;;;;;5033453;28;20442;-68
2023/08/13 12:23:02;;;;;;;6.45;4.32;;;;;;;;;;5033496;28;20033;-68
2023/08/13 12:25:29;;;;;;;6.45;4.25;;;;;;;;;;5034615;28;20041;-69
2023/08/13 12:27:55;;;;;;;4.75;3.30;;;;;;;;;;5049398;28;20144;-69
2023/08/13 12:30:21;;;;;;;4.10;3.15;;;;;;;;;;5034248;28;20384;-69
2023/08/13 12:32:47;;;;;;;4.75;3.60;;;;;;;;;;5033274;28;20037;-69
2023/08/13 12:35:12;;;;;;;4.75;3.33;;;;;;;;;;5033996;28;20451;-68
2023/08/13 12:37:38;;;;;;;4.32;3.40;;;;;;;;;;5033070;28;20380;-68
2023/08/13 12:40:05;;;;;;;4.38;2.78;;;;;;;;;;5034014;28;20038;-68
2023/08/13 12:42:31;;;;;;;3.45;3.15;;;;;;;;;;5034170;28;20055;-69
2023/08/13 12:44:59;;;;;;;3.35;2.67;;;;;;;;;;5034030;28;20129;-69
2023/08/13 12:47:25;;;;;;;5.07;2.75;;;;;;;;;;5032828;28;20040;-69
2023/08/13 12:49:51;;;;;;;5.88;2.78;;;;;;;;;;5032939;28;20053;-69
2023/08/13 12:52:16;;;;;;;4.88;2.70;;;;;;;;;;5033835;28;20033;-68
2023/08/13 12:54:42;;;;;;;3.97;2.53;;;;;;;;;;5033745;28;20472;-69
2023/08/13 12:57:09;;;;;;;5.38;2.88;;;;;;;;;;5033705;28;20061;-68
2023/08/13 12:59:36;;;;;;;5.93;2.90;;;;;;;;;;5033780;28;20072;-69
2023/08/13 13:02:01;;;;;;;6.22;3.05;;;;;;;;;;5033886;28;20480;-68
2023/08/13 13:04:27;;;;;;;3.47;2.63;;;;;;;;;;5032517;28;20472;-69
2023/08/13 13:06:53;;;;;;;3.60;2.67;;;;;;;;;;5033433;28;20136;-68
2023/08/13 13:09:19;;;;;;;4.05;2.65;;;;;;;;;;5032369;28;20049;-69
2023/08/13 13:11:45;;;;;;;2.60;2.40;;;;;;;;;;5033008;28;20068;-68
2023/08/13 13:14:10;;;;;;;3.67;2.00;;;;;;;;;;5031822;28;20072;-69
2023/08/13 13:16:36;;;;;;;2.92;2.03;;;;;;;;;;5033461;28;20086;-68
2023/08/13 13:19:02;;;;;;;4.10;2.40;;;;;;;;;;5033606;28;20048;-69
2023/08/13 13:21:27;;;;;;;3.90;2.55;;;;;;;;;;5032278;28;20033;-69
2023/08/13 13:23:53;;;;;;;2.90;2.40;;;;;;;;;;5032055;28;20048;-68
2023/08/13 13:26:19;;;;;;;7.97;2.08;;;;;;;;;;5032598;28;20041;-69
2023/08/13 13:28:45;;;;;;;7.47;2.17;;;;;;;;;;5032223;28;20048;-69
2023/08/13 13:31:11;;;;;;;2.95;2.42;;;;;;;;;;5032272;28;20445;-68
2023/08/13 13:33:37;;;;;;;2.70;2.00;;;;;;;;;;5031755;28;20341;-68
2023/08/13 13:36:05;;;;;;;3.83;2.33;;;;;;;;;;5015778;28;20412;-69
2023/08/13 13:38:31;;;;;;;6.45;2.08;;;;;;;;;;5032832;28;20091;-69
2023/08/13 13:40:56;;;;;;;5.55;2.13;;;;;;;;;;5032567;28;20029;-68
2023/08/13 13:43:23;;;;;;;2.92;1.60;;;;;;;;;;5031742;28;20452;-69
2023/08/13 13:45:49;;;;;;;2.90;1.65;;;;;;;;;;5031861;28;20033;-68
2023/08/13 13:48:15;;;;;;;3.35;2.00;;;;;;;;;;5032550;28;20051;-68
2023/08/13 13:50:40;;;;;;;3.13;1.45;;;;;;;;;;5031365;28;20476;-68
2023/08/13 13:53:06;;;;;;;3.22;2.10;;;;;;;;;;5031763;28;20037;-69
2023/08/13 13:55:32;;;;;;;3.40;2.40;;;;;;;;;;5048350;28;20041;-69
2023/08/13 13:57:58;;;;;;;6.03;2.80;;;;;;;;;;5032675;28;20037;-69
2023/08/13 14:00:24;;;;;;;4.07;3.05;;;;;;;;;;5033688;28;20561;-68
2023/08/13 14:02:49;;;;;;;8.82;3.00;;;;;;;;;;5033091;28;20041;-68
2023/08/13 14:05:15;;;;;;;6.72;2.85;;;;;;;;;;5033678;28;20458;-68
2023/08/13 14:07:41;;;;;;;7.95;3.42;;;;;;;;;;5032409;28;20053;-68
2023/08/13 14:10:07;;;;;;;10.07;3.60;;;;;;;;;;5031566;28;20041;-68
2023/08/13 14:12:34;;;;;;;7.82;4.00;;;;;;;;;;5031924;28;20099;-69
2023/08/13 14:15:00;;;;;;;5.50;3.80;;;;;;;;;;5032768;28;20197;-69
2023/08/13 14:17:25;;;;;;;6.70;4.00;;;;;;;;;;5032859;28;20076;-68
2023/08/13 14:19:51;;;;;;;8.25;4.10;;;;;;;;;;5032121;28;20056;-68
2023/08/13 14:22:17;;;;;;;6.85;4.45;;;;;;;;;;5032795;28;20037;-69
2023/08/13 14:24:43;;;;;;;5.47;4.30;;;;;;;;;;5031396;28;20052;-69
2023/08/13 14:27:09;;;;;;;7.78;4.22;;;;;;;;;;5032311;28;20033;-68